sensor_id;sensor_type;location;lat;lon;timestamp;P1;durP1;ratioP1;P2;durP2;ratioP2
6434;SDS011;3250;42.694;23.278;2022-09-01T00:01:14;22.00;;;11.63;;
6434;SDS011;3250;42.694;23.278;2022-09-01T00:03:46;19.90;;;10.98;;
6434;SDS011;3250;42.694;23.278;2022-09-01T00:06:16;16.33;;;10.65;;
6434;SDS011;3250;42.694;23.278;2022-09-01T00:08:46;16.55;;;12.20;;
6434;SDS011;3250;42.694;23.278;2022-09-01T00:11:22;23.20;;;13.93;;
6434;SDS011;3250;42.694;23.278;2022-09-01T00:13:50;22.27;;;14.30;;
6434;SDS011;3250;42.694;23.278;2022-09-01T00:16:17;17.15;;;11.63;;
6434;SDS011;3250;42.694;23.278;2022-09-01T00:18:44;16.48;;;11.52;;
6434;SDS011;3250;42.694;23.278;2022-09-01T00:21:13;18.75;;;11.13;;
6434;SDS011;3250;42.694;23.278;2022-09-01T00:23:39;19.83;;;11.20;;
6434;SDS011;3250;42.694;23.278;2022-09-01T00:26:04;20.35;;;12.38;;
6434;SDS011;3250;42.694;23.278;2022-09-01T00:28:34;25.08;;;12.75;;
6434;SDS011;3250;42.694;23.278;2022-09-01T00:31:00;16.65;;;11.88;;
6434;SDS011;3250;42.694;23.278;2022-09-01T00:33:26;16.13;;;12.23;;
6434;SDS011;3250;42.694;23.278;2022-09-01T00:35:52;22.30;;;11.90;;
6434;SDS011;3250;42.694;23.278;2022-09-01T00:38:18;19.13;;;10.65;;
6434;SDS011;3250;42.694;23.278;2022-09-01T00:40:43;15.43;;;10.77;;
6434;SDS011;3250;42.694;23.278;2022-09-01T00:43:13;18.27;;;11.27;;
6434;SDS011;3250;42.694;23.278;2022-09-01T00:45:41;20.92;;;11.30;;
6434;SDS011;3250;42.694;23.278;2022-09-01T00:48:06;19.52;;;11.25;;
6434;SDS011;3250;42.694;23.278;2022-09-01T00:50:33;17.25;;;10.88;;
6434;SDS011;3250;42.694;23.278;2022-09-01T00:53:00;18.58;;;11.18;;
6434;SDS011;3250;42.694;23.278;2022-09-01T00:55:30;15.63;;;9.90;;
6434;SDS011;3250;42.694;23.278;2022-09-01T00:57:57;15.07;;;10.20;;
6434;SDS011;3250;42.694;23.278;2022-09-01T01:00:26;23.10;;;10.10;;
6434;SDS011;3250;42.694;23.278;2022-09-01T01:02:54;15.95;;;10.65;;
6434;SDS011;3250;42.694;23.278;2022-09-01T01:05:24;14.77;;;10.88;;
6434;SDS011;3250;42.694;23.278;2022-09-01T01:07:55;16.50;;;11.35;;
6434;SDS011;3250;42.694;23.278;2022-09-01T01:10:24;18.52;;;10.35;;
6434;SDS011;3250;42.694;23.278;2022-09-01T01:12:50;13.65;;;9.10;;
6434;SDS011;3250;42.694;23.278;2022-09-01T01:15:17;18.00;;;10.75;;
6434;SDS011;3250;42.694;23.278;2022-09-01T01:17:43;16.40;;;10.50;;
6434;SDS011;3250;42.694;23.278;2022-09-01T01:20:09;14.95;;;9.68;;
6434;SDS011;3250;42.694;23.278;2022-09-01T01:25:34;20.70;;;11.02;;
6434;SDS011;3250;42.694;23.278;2022-09-01T01:30:38;20.33;;;11.20;;
6434;SDS011;3250;42.694;23.278;2022-09-01T01:33:06;20.55;;;10.45;;
6434;SDS011;3250;42.694;23.278;2022-09-01T01:35:32;17.67;;;11.13;;
6434;SDS011;3250;42.694;23.278;2022-09-01T01:37:59;18.73;;;10.93;;
6434;SDS011;3250;42.694;23.278;2022-09-01T01:40:26;15.07;;;10.40;;
6434;SDS011;3250;42.694;23.278;2022-09-01T01:42:53;18.08;;;10.35;;
6434;SDS011;3250;42.694;23.278;2022-09-01T01:45:20;20.60;;;10.80;;
6434;SDS011;3250;42.694;23.278;2022-09-01T01:47:48;14.68;;;10.07;;
6434;SDS011;3250;42.694;23.278;2022-09-01T01:50:17;16.55;;;11.05;;
6434;SDS011;3250;42.694;23.278;2022-09-01T01:52:44;15.80;;;10.20;;
6434;SDS011;3250;42.694;23.278;2022-09-01T01:55:10;14.27;;;10.20;;
6434;SDS011;3250;42.694;23.278;2022-09-01T01:57:36;15.32;;;10.65;;
6434;SDS011;3250;42.694;23.278;2022-09-01T02:00:04;15.13;;;10.57;;
6434;SDS011;3250;42.694;23.278;2022-09-01T02:02:30;17.52;;;10.00;;
6434;SDS011;3250;42.694;23.278;2022-09-01T02:04:55;18.20;;;11.02;;
6434;SDS011;3250;42.694;23.278;2022-09-01T02:07:21;15.10;;;11.30;;
6434;SDS011;3250;42.694;23.278;2022-09-01T02:09:46;13.57;;;9.73;;
6434;SDS011;3250;42.694;23.278;2022-09-01T02:12:12;15.25;;;10.57;;
6434;SDS011;3250;42.694;23.278;2022-09-01T02:14:38;18.55;;;11.00;;
6434;SDS011;3250;42.694;23.278;2022-09-01T02:17:04;15.57;;;10.57;;
6434;SDS011;3250;42.694;23.278;2022-09-01T02:19:31;13.25;;;9.98;;
6434;SDS011;3250;42.694;23.278;2022-09-01T02:21:57;19.83;;;11.10;;
6434;SDS011;3250;42.694;23.278;2022-09-01T02:24:24;17.73;;;10.02;;
6434;SDS011;3250;42.694;23.278;2022-09-01T02:26:50;12.75;;;9.65;;
6434;SDS011;3250;42.694;23.278;2022-09-01T02:29:20;15.00;;;10.75;;
6434;SDS011;3250;42.694;23.278;2022-09-01T02:31:50;18.40;;;9.85;;
6434;SDS011;3250;42.694;23.278;2022-09-01T02:34:17;19.23;;;10.30;;
6434;SDS011;3250;42.694;23.278;2022-09-01T02:36:45;12.45;;;8.93;;
6434;SDS011;3250;42.694;23.278;2022-09-01T02:39:20;21.45;;;10.43;;
6434;SDS011;3250;42.694;23.278;2022-09-01T02:41:47;15.70;;;10.23;;
6434;SDS011;3250;42.694;23.278;2022-09-01T02:44:13;15.48;;;9.30;;
6434;SDS011;3250;42.694;23.278;2022-09-01T02:46:40;13.32;;;9.18;;
6434;SDS011;3250;42.694;23.278;2022-09-01T02:49:11;17.48;;;10.25;;
6434;SDS011;3250;42.694;23.278;2022-09-01T02:51:42;22.42;;;10.30;;
6434;SDS011;3250;42.694;23.278;2022-09-01T02:54:10;17.50;;;9.95;;
6434;SDS011;3250;42.694;23.278;2022-09-01T02:56:40;13.48;;;10.65;;
6434;SDS011;3250;42.694;23.278;2022-09-01T02:59:06;14.27;;;9.75;;
6434;SDS011;3250;42.694;23.278;2022-09-01T03:01:36;14.10;;;10.45;;
6434;SDS011;3250;42.694;23.278;2022-09-01T03:04:02;18.40;;;9.90;;
6434;SDS011;3250;42.694;23.278;2022-09-01T03:06:30;16.30;;;10.20;;
6434;SDS011;3250;42.694;23.278;2022-09-01T03:08:58;20.88;;;11.13;;
6434;SDS011;3250;42.694;23.278;2022-09-01T03:11:25;14.50;;;9.30;;
6434;SDS011;3250;42.694;23.278;2022-09-01T03:13:51;13.90;;;10.25;;
6434;SDS011;3250;42.694;23.278;2022-09-01T03:16:18;17.58;;;10.32;;
6434;SDS011;3250;42.694;23.278;2022-09-01T03:18:43;22.30;;;10.63;;
6434;SDS011;3250;42.694;23.278;2022-09-01T03:21:09;29.25;;;15.68;;
6434;SDS011;3250;42.694;23.278;2022-09-01T03:23:41;22.45;;;13.32;;
6434;SDS011;3250;42.694;23.278;2022-09-01T03:26:10;19.80;;;13.05;;
6434;SDS011;3250;42.694;23.278;2022-09-01T03:28:35;22.92;;;12.82;;
6434;SDS011;3250;42.694;23.278;2022-09-01T03:31:04;17.27;;;11.63;;
6434;SDS011;3250;42.694;23.278;2022-09-01T03:33:30;18.20;;;12.18;;
6434;SDS011;3250;42.694;23.278;2022-09-01T03:35:56;23.48;;;11.70;;
6434;SDS011;3250;42.694;23.278;2022-09-01T03:38:23;18.45;;;11.23;;
6434;SDS011;3250;42.694;23.278;2022-09-01T03:40:53;21.63;;;12.80;;
6434;SDS011;3250;42.694;23.278;2022-09-01T03:43:23;25.58;;;11.88;;
6434;SDS011;3250;42.694;23.278;2022-09-01T03:45:51;19.88;;;12.95;;
6434;SDS011;3250;42.694;23.278;2022-09-01T03:48:19;17.00;;;11.57;;
6434;SDS011;3250;42.694;23.278;2022-09-01T03:50:45;23.98;;;12.52;;
6434;SDS011;3250;42.694;23.278;2022-09-01T03:53:12;19.92;;;13.30;;
6434;SDS011;3250;42.694;23.278;2022-09-01T03:55:47;23.27;;;14.43;;
6434;SDS011;3250;42.694;23.278;2022-09-01T03:58:14;20.17;;;13.15;;
6434;SDS011;3250;42.694;23.278;2022-09-01T04:00:44;20.02;;;12.23;;
6434;SDS011;3250;42.694;23.278;2022-09-01T04:03:12;16.98;;;11.57;;
6434;SDS011;3250;42.694;23.278;2022-09-01T04:05:41;17.52;;;11.48;;
6434;SDS011;3250;42.694;23.278;2022-09-01T04:08:09;17.52;;;10.50;;
6434;SDS011;3250;42.694;23.278;2022-09-01T04:10:39;18.83;;;11.73;;
6434;SDS011;3250;42.694;23.278;2022-09-01T04:13:23;17.92;;;11.80;;
6434;SDS011;3250;42.694;23.278;2022-09-01T04:15:51;28.25;;;18.33;;
6434;SDS011;3250;42.694;23.278;2022-09-01T04:18:17;21.38;;;11.73;;
6434;SDS011;3250;42.694;23.278;2022-09-01T04:20:46;20.48;;;12.68;;
6434;SDS011;3250;42.694;23.278;2022-09-01T04:28:33;23.38;;;15.32;;
6434;SDS011;3250;42.694;23.278;2022-09-01T04:31:02;21.45;;;12.13;;
6434;SDS011;3250;42.694;23.278;2022-09-01T04:33:33;26.95;;;16.83;;
6434;SDS011;3250;42.694;23.278;2022-09-01T04:36:12;17.38;;;12.45;;
6434;SDS011;3250;42.694;23.278;2022-09-01T04:38:47;23.67;;;13.43;;
6434;SDS011;3250;42.694;23.278;2022-09-01T04:41:14;19.48;;;13.32;;
6434;SDS011;3250;42.694;23.278;2022-09-01T04:43:44;25.67;;;17.02;;
6434;SDS011;3250;42.694;23.278;2022-09-01T04:46:11;23.30;;;13.13;;
6434;SDS011;3250;42.694;23.278;2022-09-01T04:48:40;18.20;;;12.35;;
6434;SDS011;3250;42.694;23.278;2022-09-01T04:51:09;32.80;;;12.40;;
6434;SDS011;3250;42.694;23.278;2022-09-01T04:53:36;21.77;;;13.65;;
6434;SDS011;3250;42.694;23.278;2022-09-01T04:56:03;21.77;;;13.85;;
6434;SDS011;3250;42.694;23.278;2022-09-01T04:58:30;19.30;;;13.07;;
6434;SDS011;3250;42.694;23.278;2022-09-01T05:00:56;26.27;;;15.48;;
6434;SDS011;3250;42.694;23.278;2022-09-01T05:03:24;21.10;;;13.93;;
6434;SDS011;3250;42.694;23.278;2022-09-01T05:05:50;21.60;;;14.43;;
6434;SDS011;3250;42.694;23.278;2022-09-01T05:08:19;25.50;;;15.95;;
6434;SDS011;3250;42.694;23.278;2022-09-01T05:10:47;25.80;;;13.60;;
6434;SDS011;3250;42.694;23.278;2022-09-01T05:13:16;19.67;;;13.73;;
6434;SDS011;3250;42.694;23.278;2022-09-01T05:15:43;28.65;;;17.10;;
6434;SDS011;3250;42.694;23.278;2022-09-01T05:18:15;21.40;;;13.88;;
6434;SDS011;3250;42.694;23.278;2022-09-01T05:20:47;17.85;;;12.35;;
6434;SDS011;3250;42.694;23.278;2022-09-01T05:23:13;21.33;;;11.77;;
6434;SDS011;3250;42.694;23.278;2022-09-01T05:25:43;32.50;;;20.80;;
6434;SDS011;3250;42.694;23.278;2022-09-01T05:28:12;21.42;;;13.23;;
6434;SDS011;3250;42.694;23.278;2022-09-01T05:30:38;24.08;;;13.20;;
6434;SDS011;3250;42.694;23.278;2022-09-01T05:33:05;22.98;;;15.52;;
6434;SDS011;3250;42.694;23.278;2022-09-01T05:35:39;26.17;;;16.92;;
6434;SDS011;3250;42.694;23.278;2022-09-01T05:38:08;22.70;;;12.27;;
6434;SDS011;3250;42.694;23.278;2022-09-01T05:40:37;14.00;;;8.95;;
6434;SDS011;3250;42.694;23.278;2022-09-01T05:43:09;12.73;;;10.45;;
6434;SDS011;3250;42.694;23.278;2022-09-01T05:45:36;16.88;;;10.93;;
6434;SDS011;3250;42.694;23.278;2022-09-01T05:48:04;14.25;;;8.05;;
6434;SDS011;3250;42.694;23.278;2022-09-01T05:50:30;13.93;;;10.20;;
6434;SDS011;3250;42.694;23.278;2022-09-01T05:52:55;12.23;;;9.07;;
6434;SDS011;3250;42.694;23.278;2022-09-01T05:55:21;25.33;;;16.10;;
6434;SDS011;3250;42.694;23.278;2022-09-01T05:57:47;14.63;;;11.20;;
6434;SDS011;3250;42.694;23.278;2022-09-01T06:00:14;14.25;;;9.65;;
6434;SDS011;3250;42.694;23.278;2022-09-01T06:02:42;17.52;;;12.02;;
6434;SDS011;3250;42.694;23.278;2022-09-01T06:05:08;17.85;;;12.45;;
6434;SDS011;3250;42.694;23.278;2022-09-01T06:07:34;17.30;;;10.43;;
6434;SDS011;3250;42.694;23.278;2022-09-01T06:10:04;18.08;;;12.63;;
6434;SDS011;3250;42.694;23.278;2022-09-01T06:12:30;19.27;;;11.80;;
6434;SDS011;3250;42.694;23.278;2022-09-01T06:14:57;19.77;;;12.75;;
6434;SDS011;3250;42.694;23.278;2022-09-01T06:17:24;26.80;;;18.35;;
6434;SDS011;3250;42.694;23.278;2022-09-01T06:19:53;22.70;;;13.02;;
6434;SDS011;3250;42.694;23.278;2022-09-01T06:22:20;20.08;;;13.80;;
6434;SDS011;3250;42.694;23.278;2022-09-01T06:24:47;23.50;;;14.57;;
6434;SDS011;3250;42.694;23.278;2022-09-01T06:27:16;19.88;;;14.63;;
6434;SDS011;3250;42.694;23.278;2022-09-01T06:29:44;20.15;;;14.20;;
6434;SDS011;3250;42.694;23.278;2022-09-01T06:32:13;21.27;;;14.15;;
6434;SDS011;3250;42.694;23.278;2022-09-01T06:34:40;18.33;;;14.13;;
6434;SDS011;3250;42.694;23.278;2022-09-01T06:37:08;22.60;;;15.18;;
6434;SDS011;3250;42.694;23.278;2022-09-01T06:39:37;22.58;;;14.68;;
6434;SDS011;3250;42.694;23.278;2022-09-01T06:42:02;20.98;;;14.93;;
6434;SDS011;3250;42.694;23.278;2022-09-01T06:44:28;19.40;;;14.60;;
6434;SDS011;3250;42.694;23.278;2022-09-01T06:46:56;21.70;;;15.10;;
6434;SDS011;3250;42.694;23.278;2022-09-01T06:49:23;20.58;;;14.65;;
6434;SDS011;3250;42.694;23.278;2022-09-01T06:52:00;28.83;;;14.85;;
6434;SDS011;3250;42.694;23.278;2022-09-01T06:54:27;22.77;;;15.55;;
6434;SDS011;3250;42.694;23.278;2022-09-01T06:56:55;23.10;;;14.30;;
6434;SDS011;3250;42.694;23.278;2022-09-01T06:59:21;22.88;;;15.15;;
6434;SDS011;3250;42.694;23.278;2022-09-01T07:01:47;23.27;;;15.07;;
6434;SDS011;3250;42.694;23.278;2022-09-01T07:04:15;23.27;;;15.80;;
6434;SDS011;3250;42.694;23.278;2022-09-01T07:06:44;24.23;;;15.75;;
6434;SDS011;3250;42.694;23.278;2022-09-01T07:09:14;21.30;;;15.73;;
6434;SDS011;3250;42.694;23.278;2022-09-01T07:11:40;26.92;;;17.33;;
6434;SDS011;3250;42.694;23.278;2022-09-01T07:14:05;22.85;;;15.57;;
6434;SDS011;3250;42.694;23.278;2022-09-01T07:16:32;29.50;;;16.35;;
6434;SDS011;3250;42.694;23.278;2022-09-01T07:19:04;29.70;;;16.42;;
6434;SDS011;3250;42.694;23.278;2022-09-01T07:21:33;23.67;;;17.25;;
6434;SDS011;3250;42.694;23.278;2022-09-01T07:23:58;37.63;;;17.80;;
6434;SDS011;3250;42.694;23.278;2022-09-01T07:26:28;24.25;;;16.92;;
6434;SDS011;3250;42.694;23.278;2022-09-01T07:28:54;25.98;;;16.98;;
6434;SDS011;3250;42.694;23.278;2022-09-01T07:31:22;23.77;;;16.13;;
6434;SDS011;3250;42.694;23.278;2022-09-01T07:33:50;29.80;;;17.10;;
6434;SDS011;3250;42.694;23.278;2022-09-01T07:36:18;31.35;;;16.23;;
6434;SDS011;3250;42.694;23.278;2022-09-01T07:38:44;24.48;;;17.15;;
6434;SDS011;3250;42.694;23.278;2022-09-01T07:41:16;31.92;;;17.85;;
6434;SDS011;3250;42.694;23.278;2022-09-01T07:43:41;25.63;;;15.88;;
6434;SDS011;3250;42.694;23.278;2022-09-01T07:46:09;29.00;;;17.55;;
6434;SDS011;3250;42.694;23.278;2022-09-01T07:48:36;24.75;;;17.15;;
6434;SDS011;3250;42.694;23.278;2022-09-01T07:51:02;28.63;;;16.92;;
6434;SDS011;3250;42.694;23.278;2022-09-01T07:53:30;20.83;;;15.20;;
6434;SDS011;3250;42.694;23.278;2022-09-01T07:55:58;22.65;;;14.50;;
6434;SDS011;3250;42.694;23.278;2022-09-01T07:58:31;29.48;;;14.48;;
6434;SDS011;3250;42.694;23.278;2022-09-01T08:00:57;23.05;;;14.73;;
6434;SDS011;3250;42.694;23.278;2022-09-01T08:03:26;23.23;;;14.70;;
6434;SDS011;3250;42.694;23.278;2022-09-01T08:05:53;22.15;;;14.32;;
6434;SDS011;3250;42.694;23.278;2022-09-01T08:08:23;25.67;;;15.07;;
6434;SDS011;3250;42.694;23.278;2022-09-01T08:10:49;22.85;;;16.25;;
6434;SDS011;3250;42.694;23.278;2022-09-01T08:13:15;23.23;;;15.35;;
6434;SDS011;3250;42.694;23.278;2022-09-01T08:15:41;23.77;;;14.75;;
6434;SDS011;3250;42.694;23.278;2022-09-01T08:18:07;28.77;;;15.90;;
6434;SDS011;3250;42.694;23.278;2022-09-01T08:20:33;21.25;;;14.98;;
6434;SDS011;3250;42.694;23.278;2022-09-01T08:23:03;21.02;;;14.75;;
6434;SDS011;3250;42.694;23.278;2022-09-01T08:25:34;21.45;;;13.90;;
6434;SDS011;3250;42.694;23.278;2022-09-01T08:28:01;17.10;;;13.35;;
6434;SDS011;3250;42.694;23.278;2022-09-01T08:30:27;23.42;;;14.07;;
6434;SDS011;3250;42.694;23.278;2022-09-01T08:32:54;25.27;;;14.15;;
6434;SDS011;3250;42.694;23.278;2022-09-01T08:35:19;22.35;;;13.63;;
6434;SDS011;3250;42.694;23.278;2022-09-01T08:37:45;22.75;;;13.55;;
6434;SDS011;3250;42.694;23.278;2022-09-01T08:40:11;24.00;;;14.27;;
6434;SDS011;3250;42.694;23.278;2022-09-01T08:42:59;17.10;;;12.55;;
6434;SDS011;3250;42.694;23.278;2022-09-01T08:45:48;17.20;;;10.88;;
6434;SDS011;3250;42.694;23.278;2022-09-01T08:56:29;17.95;;;11.55;;
6434;SDS011;3250;42.694;23.278;2022-09-01T08:58:56;17.90;;;10.48;;
6434;SDS011;3250;42.694;23.278;2022-09-01T09:10:21;13.70;;;10.68;;
6434;SDS011;3250;42.694;23.278;2022-09-01T09:12:56;16.45;;;11.38;;
6434;SDS011;3250;42.694;23.278;2022-09-01T09:18:15;15.05;;;9.32;;
6434;SDS011;3250;42.694;23.278;2022-09-01T09:20:42;11.63;;;8.35;;
6434;SDS011;3250;42.694;23.278;2022-09-01T09:23:12;11.18;;;8.73;;
6434;SDS011;3250;42.694;23.278;2022-09-01T09:25:48;15.88;;;9.95;;
6434;SDS011;3250;42.694;23.278;2022-09-01T09:28:14;10.93;;;9.57;;
6434;SDS011;3250;42.694;23.278;2022-09-01T09:30:40;15.10;;;10.52;;
6434;SDS011;3250;42.694;23.278;2022-09-01T09:33:06;13.00;;;10.13;;
6434;SDS011;3250;42.694;23.278;2022-09-01T09:35:44;12.13;;;8.55;;
6434;SDS011;3250;42.694;23.278;2022-09-01T09:41:29;13.30;;;8.68;;
6434;SDS011;3250;42.694;23.278;2022-09-01T09:51:42;13.50;;;8.98;;
6434;SDS011;3250;42.694;23.278;2022-09-01T09:57:01;11.45;;;8.25;;
6434;SDS011;3250;42.694;23.278;2022-09-01T09:59:46;14.45;;;7.97;;
6434;SDS011;3250;42.694;23.278;2022-09-01T10:02:37;12.70;;;7.28;;
6434;SDS011;3250;42.694;23.278;2022-09-01T10:08:08;13.40;;;7.97;;
6434;SDS011;3250;42.694;23.278;2022-09-01T10:11:02;13.05;;;7.43;;
6434;SDS011;3250;42.694;23.278;2022-09-01T10:13:29;16.67;;;8.73;;
6434;SDS011;3250;42.694;23.278;2022-09-01T10:15:57;16.58;;;8.65;;
6434;SDS011;3250;42.694;23.278;2022-09-01T10:18:28;15.18;;;8.15;;
6434;SDS011;3250;42.694;23.278;2022-09-01T10:21:02;11.50;;;6.82;;
6434;SDS011;3250;42.694;23.278;2022-09-01T10:23:34;17.45;;;8.68;;
6434;SDS011;3250;42.694;23.278;2022-09-01T10:26:14;16.27;;;8.23;;
6434;SDS011;3250;42.694;23.278;2022-09-01T10:28:56;15.20;;;8.23;;
6434;SDS011;3250;42.694;23.278;2022-09-01T10:31:25;18.88;;;8.80;;
6434;SDS011;3250;42.694;23.278;2022-09-01T10:33:51;16.17;;;8.32;;
6434;SDS011;3250;42.694;23.278;2022-09-01T10:36:17;12.48;;;7.65;;
6434;SDS011;3250;42.694;23.278;2022-09-01T10:38:43;14.10;;;9.13;;
6434;SDS011;3250;42.694;23.278;2022-09-01T10:41:12;13.77;;;8.38;;
6434;SDS011;3250;42.694;23.278;2022-09-01T10:44:09;14.05;;;7.78;;
6434;SDS011;3250;42.694;23.278;2022-09-01T10:46:43;14.00;;;8.45;;
6434;SDS011;3250;42.694;23.278;2022-09-01T10:49:20;17.63;;;8.32;;
6434;SDS011;3250;42.694;23.278;2022-09-01T10:52:06;14.43;;;7.63;;
6434;SDS011;3250;42.694;23.278;2022-09-01T11:11:06;11.02;;;7.32;;
6434;SDS011;3250;42.694;23.278;2022-09-01T11:13:53;16.15;;;7.82;;
6434;SDS011;3250;42.694;23.278;2022-09-01T11:19:15;11.63;;;8.32;;
6434;SDS011;3250;42.694;23.278;2022-09-01T11:21:45;12.50;;;8.32;;
6434;SDS011;3250;42.694;23.278;2022-09-01T11:27:55;18.02;;;8.20;;
6434;SDS011;3250;42.694;23.278;2022-09-01T11:30:22;13.95;;;7.35;;
6434;SDS011;3250;42.694;23.278;2022-09-01T11:33:00;11.70;;;8.13;;
6434;SDS011;3250;42.694;23.278;2022-09-01T11:35:49;19.75;;;8.48;;
6434;SDS011;3250;42.694;23.278;2022-09-01T11:38:23;11.65;;;8.02;;
6434;SDS011;3250;42.694;23.278;2022-09-01T11:40:55;15.77;;;8.13;;
6434;SDS011;3250;42.694;23.278;2022-09-01T11:43:21;11.52;;;7.32;;
6434;SDS011;3250;42.694;23.278;2022-09-01T11:48:33;10.93;;;7.53;;
6434;SDS011;3250;42.694;23.278;2022-09-01T11:50:59;10.65;;;7.40;;
6434;SDS011;3250;42.694;23.278;2022-09-01T11:53:26;16.90;;;7.70;;
6434;SDS011;3250;42.694;23.278;2022-09-01T11:55:52;11.43;;;7.55;;
6434;SDS011;3250;42.694;23.278;2022-09-01T11:58:29;9.93;;;7.05;;
6434;SDS011;3250;42.694;23.278;2022-09-01T12:01:10;10.05;;;7.35;;
6434;SDS011;3250;42.694;23.278;2022-09-01T12:03:38;9.68;;;6.38;;
6434;SDS011;3250;42.694;23.278;2022-09-01T12:06:06;9.48;;;7.03;;
6434;SDS011;3250;42.694;23.278;2022-09-01T12:08:38;11.00;;;8.15;;
6434;SDS011;3250;42.694;23.278;2022-09-01T12:11:17;16.77;;;7.65;;
6434;SDS011;3250;42.694;23.278;2022-09-01T12:14:02;18.02;;;7.55;;
6434;SDS011;3250;42.694;23.278;2022-09-01T12:16:33;8.93;;;6.63;;
6434;SDS011;3250;42.694;23.278;2022-09-01T12:19:02;8.70;;;7.55;;
6434;SDS011;3250;42.694;23.278;2022-09-01T12:21:33;10.32;;;6.88;;
6434;SDS011;3250;42.694;23.278;2022-09-01T12:24:35;8.68;;;6.72;;
6434;SDS011;3250;42.694;23.278;2022-09-01T12:26:56;8.07;;;6.43;;
6434;SDS011;3250;42.694;23.278;2022-09-01T12:29:23;12.98;;;7.00;;
6434;SDS011;3250;42.694;23.278;2022-09-01T12:31:50;10.45;;;6.78;;
6434;SDS011;3250;42.694;23.278;2022-09-01T12:34:23;10.82;;;7.30;;
6434;SDS011;3250;42.694;23.278;2022-09-01T12:37:05;11.55;;;7.50;;
6434;SDS011;3250;42.694;23.278;2022-09-01T12:39:32;7.88;;;6.78;;
6434;SDS011;3250;42.694;23.278;2022-09-01T12:42:08;13.55;;;7.45;;
6434;SDS011;3250;42.694;23.278;2022-09-01T12:47:09;10.23;;;7.70;;
6434;SDS011;3250;42.694;23.278;2022-09-01T12:57:30;9.70;;;7.05;;
6434;SDS011;3250;42.694;23.278;2022-09-01T13:02:35;10.80;;;7.15;;
6434;SDS011;3250;42.694;23.278;2022-09-01T13:05:24;12.05;;;8.18;;
6434;SDS011;3250;42.694;23.278;2022-09-01T13:07:56;13.10;;;7.70;;
6434;SDS011;3250;42.694;23.278;2022-09-01T13:10:24;10.05;;;7.40;;
6434;SDS011;3250;42.694;23.278;2022-09-01T13:12:52;13.40;;;8.52;;
6434;SDS011;3250;42.694;23.278;2022-09-01T13:15:18;11.95;;;7.60;;
6434;SDS011;3250;42.694;23.278;2022-09-01T13:17:45;11.23;;;7.32;;
6434;SDS011;3250;42.694;23.278;2022-09-01T13:20:11;11.00;;;7.55;;
6434;SDS011;3250;42.694;23.278;2022-09-01T13:22:37;16.50;;;7.43;;
6434;SDS011;3250;42.694;23.278;2022-09-01T13:25:03;12.38;;;7.82;;
6434;SDS011;3250;42.694;23.278;2022-09-01T13:27:29;12.13;;;8.15;;
6434;SDS011;3250;42.694;23.278;2022-09-01T13:29:55;13.07;;;8.20;;
6434;SDS011;3250;42.694;23.278;2022-09-01T13:32:21;14.43;;;8.25;;
6434;SDS011;3250;42.694;23.278;2022-09-01T13:34:48;18.98;;;8.02;;
6434;SDS011;3250;42.694;23.278;2022-09-01T13:37:14;12.93;;;8.45;;
6434;SDS011;3250;42.694;23.278;2022-09-01T13:39:40;11.65;;;8.13;;
6434;SDS011;3250;42.694;23.278;2022-09-01T13:42:05;19.23;;;8.32;;
6434;SDS011;3250;42.694;23.278;2022-09-01T13:44:31;11.63;;;7.82;;
6434;SDS011;3250;42.694;23.278;2022-09-01T13:46:57;11.35;;;7.22;;
6434;SDS011;3250;42.694;23.278;2022-09-01T13:49:23;16.27;;;7.40;;
6434;SDS011;3250;42.694;23.278;2022-09-01T13:51:51;15.02;;;8.38;;
6434;SDS011;3250;42.694;23.278;2022-09-01T13:54:18;13.02;;;7.70;;
6434;SDS011;3250;42.694;23.278;2022-09-01T13:56:44;17.15;;;8.18;;
6434;SDS011;3250;42.694;23.278;2022-09-01T13:59:09;11.63;;;7.55;;
6434;SDS011;3250;42.694;23.278;2022-09-01T14:01:34;12.05;;;7.70;;
6434;SDS011;3250;42.694;23.278;2022-09-01T14:04:00;12.05;;;7.47;;
6434;SDS011;3250;42.694;23.278;2022-09-01T14:06:28;13.57;;;8.70;;
6434;SDS011;3250;42.694;23.278;2022-09-01T14:08:53;13.90;;;7.32;;
6434;SDS011;3250;42.694;23.278;2022-09-01T14:11:20;19.75;;;7.85;;
6434;SDS011;3250;42.694;23.278;2022-09-01T14:13:45;10.07;;;7.20;;
6434;SDS011;3250;42.694;23.278;2022-09-01T14:16:11;11.48;;;6.95;;
6434;SDS011;3250;42.694;23.278;2022-09-01T14:18:41;10.38;;;6.97;;
6434;SDS011;3250;42.694;23.278;2022-09-01T14:21:10;11.45;;;6.10;;
6434;SDS011;3250;42.694;23.278;2022-09-01T14:23:37;13.75;;;6.68;;
6434;SDS011;3250;42.694;23.278;2022-09-01T14:26:06;12.68;;;7.47;;
6434;SDS011;3250;42.694;23.278;2022-09-01T14:28:34;16.27;;;7.53;;
6434;SDS011;3250;42.694;23.278;2022-09-01T14:30:59;10.77;;;6.55;;
6434;SDS011;3250;42.694;23.278;2022-09-01T14:33:29;12.60;;;6.90;;
6434;SDS011;3250;42.694;23.278;2022-09-01T14:35:55;11.50;;;7.10;;
6434;SDS011;3250;42.694;23.278;2022-09-01T14:38:21;13.25;;;7.70;;
6434;SDS011;3250;42.694;23.278;2022-09-01T14:40:47;18.08;;;7.97;;
6434;SDS011;3250;42.694;23.278;2022-09-01T14:43:13;7.88;;;6.65;;
6434;SDS011;3250;42.694;23.278;2022-09-01T14:45:38;10.18;;;7.10;;
6434;SDS011;3250;42.694;23.278;2022-09-01T14:48:05;11.30;;;7.25;;
6434;SDS011;3250;42.694;23.278;2022-09-01T14:50:33;15.43;;;9.15;;
6434;SDS011;3250;42.694;23.278;2022-09-01T14:53:05;11.40;;;8.43;;
6434;SDS011;3250;42.694;23.278;2022-09-01T14:55:30;11.00;;;8.07;;
6434;SDS011;3250;42.694;23.278;2022-09-01T14:57:56;12.70;;;7.78;;
6434;SDS011;3250;42.694;23.278;2022-09-01T15:00:23;10.75;;;7.65;;
6434;SDS011;3250;42.694;23.278;2022-09-01T15:02:50;12.35;;;7.32;;
6434;SDS011;3250;42.694;23.278;2022-09-01T15:05:16;12.82;;;7.95;;
6434;SDS011;3250;42.694;23.278;2022-09-01T15:07:42;15.25;;;8.10;;
6434;SDS011;3250;42.694;23.278;2022-09-01T15:10:09;9.38;;;7.35;;
6434;SDS011;3250;42.694;23.278;2022-09-01T15:12:36;15.05;;;8.02;;
6434;SDS011;3250;42.694;23.278;2022-09-01T15:15:03;10.80;;;7.28;;
6434;SDS011;3250;42.694;23.278;2022-09-01T15:17:30;10.55;;;8.30;;
6434;SDS011;3250;42.694;23.278;2022-09-01T15:19:56;9.82;;;7.53;;
6434;SDS011;3250;42.694;23.278;2022-09-01T15:22:41;10.77;;;7.60;;
6434;SDS011;3250;42.694;23.278;2022-09-01T15:25:10;14.10;;;7.78;;
6434;SDS011;3250;42.694;23.278;2022-09-01T15:27:56;12.93;;;8.02;;
6434;SDS011;3250;42.694;23.278;2022-09-01T15:30:22;17.10;;;7.65;;
6434;SDS011;3250;42.694;23.278;2022-09-01T15:32:48;11.63;;;8.00;;
6434;SDS011;3250;42.694;23.278;2022-09-01T15:35:17;12.60;;;7.63;;
6434;SDS011;3250;42.694;23.278;2022-09-01T15:37:44;10.10;;;6.47;;
6434;SDS011;3250;42.694;23.278;2022-09-01T15:40:11;10.27;;;7.38;;
6434;SDS011;3250;42.694;23.278;2022-09-01T15:42:36;17.08;;;7.82;;
6434;SDS011;3250;42.694;23.278;2022-09-01T15:45:04;10.77;;;7.38;;
6434;SDS011;3250;42.694;23.278;2022-09-01T15:47:33;13.13;;;7.75;;
6434;SDS011;3250;42.694;23.278;2022-09-01T15:49:58;9.43;;;7.05;;
6434;SDS011;3250;42.694;23.278;2022-09-01T15:52:24;10.45;;;7.90;;
6434;SDS011;3250;42.694;23.278;2022-09-01T15:54:51;11.95;;;7.85;;
6434;SDS011;3250;42.694;23.278;2022-09-01T15:57:17;15.35;;;7.82;;
6434;SDS011;3250;42.694;23.278;2022-09-01T15:59:42;10.48;;;8.18;;
6434;SDS011;3250;42.694;23.278;2022-09-01T16:02:09;12.27;;;7.95;;
6434;SDS011;3250;42.694;23.278;2022-09-01T16:04:37;10.70;;;7.32;;
6434;SDS011;3250;42.694;23.278;2022-09-01T16:07:03;12.73;;;6.65;;
6434;SDS011;3250;42.694;23.278;2022-09-01T16:09:29;17.17;;;6.97;;
6434;SDS011;3250;42.694;23.278;2022-09-01T16:11:55;11.43;;;6.28;;
6434;SDS011;3250;42.694;23.278;2022-09-01T16:14:20;10.80;;;5.75;;
6434;SDS011;3250;42.694;23.278;2022-09-01T16:22:36;8.38;;;5.43;;